Terminal Aerodrome Forecast
Issued by NWS

Home | Current Version | Previous Version | Text Only | Print | Product List | Glossary On
Versions: 1 2 3 4 5 6 7 8 9 10 11 12 13 14 15 16 17 18 19 20 21 22 23 24
680
FTUS43 KIND 281122
TAFBMG
TAF
KBMG 281122Z 2812/2912 03006KT 5SM BR OVC005
     FM281300 04006KT 5SM BR BKN008
     FM281400 05006KT P6SM BKN010
     FM281600 04007KT P6SM BKN030
     FM281700 03008KT P6SM BKN045
     FM281800 03009KT P6SM SCT060
     FM290200 02005KT P6SM FEW050 FEW250
      AMD LTD TO CLD VIS AND WIND TIL 281300=

USA.gov is the U.S. government's official web portal to all federal, state and local government web resources and services.